Robertsbridge, United Kingdom
Current Conditions -  °F | °C
As of 2:20 PM on Tuesday 27 Jan 2015 (Local Time) from EGMD Reporting Station
Few Clouds Few Clouds  
Wind Chill: 44°   Ceiling: Unl
Heat Index: 48°   Visibility: 6mi
Dew Point: 41°   Wind: 10mph
Humidity: 76%   Direction: 270°W
Pressure: 30.3"   Gusts: NA
Location:  50.99°N, 0.47°E
Report Text: EGMD 271420Z 27009KT 9999 FEW035 09/05 Q1026
Loading
Personal Weather Stations






























Interactive Weather Map New forecast layout! Learn more

10-Day Weather Forecast

Advertisements
Track Severe Weather on mobile